sensor_id;sensor_type;location;lat;lon;timestamp;P1;durP1;ratioP1;P2;durP2;ratioP2
19944;SDS011;10134;50.952;6.930;2022-09-21T00:01:24;12.55;;;4.40;;
19944;SDS011;10134;50.952;6.930;2022-09-21T00:03:57;7.25;;;3.67;;
19944;SDS011;10134;50.952;6.930;2022-09-21T00:06:27;6.93;;;3.85;;
19944;SDS011;10134;50.952;6.930;2022-09-21T00:08:57;7.78;;;3.45;;
19944;SDS011;10134;50.952;6.930;2022-09-21T00:11:26;7.90;;;4.20;;
19944;SDS011;10134;50.952;6.930;2022-09-21T00:14:02;8.55;;;3.53;;
19944;SDS011;10134;50.952;6.930;2022-09-21T00:16:36;6.65;;;3.80;;
19944;SDS011;10134;50.952;6.930;2022-09-21T00:19:04;9.25;;;3.97;;
19944;SDS011;10134;50.952;6.930;2022-09-21T00:21:32;5.57;;;3.88;;
19944;SDS011;10134;50.952;6.930;2022-09-21T00:24:00;12.27;;;4.97;;
19944;SDS011;10134;50.952;6.930;2022-09-21T00:26:28;10.20;;;3.83;;
19944;SDS011;10134;50.952;6.930;2022-09-21T00:28:57;8.25;;;3.80;;
19944;SDS011;10134;50.952;6.930;2022-09-21T00:31:26;10.77;;;4.18;;
19944;SDS011;10134;50.952;6.930;2022-09-21T00:33:55;7.72;;;3.80;;
19944;SDS011;10134;50.952;6.930;2022-09-21T00:36:24;12.00;;;5.22;;
19944;SDS011;10134;50.952;6.930;2022-09-21T00:38:53;4.95;;;3.33;;
19944;SDS011;10134;50.952;6.930;2022-09-21T00:41:23;6.47;;;4.22;;
19944;SDS011;10134;50.952;6.930;2022-09-21T00:46:44;7.72;;;3.97;;
19944;SDS011;10134;50.952;6.930;2022-09-21T00:49:13;13.02;;;3.90;;
19944;SDS011;10134;50.952;6.930;2022-09-21T00:51:42;11.48;;;4.07;;
19944;SDS011;10134;50.952;6.930;2022-09-21T00:54:11;7.70;;;3.45;;
19944;SDS011;10134;50.952;6.930;2022-09-21T00:56:45;7.85;;;4.13;;
19944;SDS011;10134;50.952;6.930;2022-09-21T00:59:13;5.60;;;3.25;;
19944;SDS011;10134;50.952;6.930;2022-09-21T01:01:47;7.88;;;3.95;;
19944;SDS011;10134;50.952;6.930;2022-09-21T01:04:14;9.00;;;3.78;;
19944;SDS011;10134;50.952;6.930;2022-09-21T01:06:44;6.00;;;3.95;;
19944;SDS011;10134;50.952;6.930;2022-09-21T01:09:13;7.57;;;4.07;;
19944;SDS011;10134;50.952;6.930;2022-09-21T01:17:29;8.27;;;3.67;;
19944;SDS011;10134;50.952;6.930;2022-09-21T01:25:52;8.13;;;3.85;;
19944;SDS011;10134;50.952;6.930;2022-09-21T01:32:13;6.25;;;4.32;;
19944;SDS011;10134;50.952;6.930;2022-09-21T01:34:47;10.23;;;4.68;;
19944;SDS011;10134;50.952;6.930;2022-09-21T01:37:25;10.27;;;4.57;;
19944;SDS011;10134;50.952;6.930;2022-09-21T01:39:59;8.50;;;4.03;;
19944;SDS011;10134;50.952;6.930;2022-09-21T01:42:30;8.82;;;3.88;;
19944;SDS011;10134;50.952;6.930;2022-09-21T01:45:00;8.10;;;4.32;;
19944;SDS011;10134;50.952;6.930;2022-09-21T01:47:31;8.35;;;4.35;;
19944;SDS011;10134;50.952;6.930;2022-09-21T01:50:03;8.82;;;4.53;;
19944;SDS011;10134;50.952;6.930;2022-09-21T01:52:57;7.78;;;4.43;;
19944;SDS011;10134;50.952;6.930;2022-09-21T01:55:26;7.78;;;3.72;;
19944;SDS011;10134;50.952;6.930;2022-09-21T01:58:00;5.93;;;4.03;;
19944;SDS011;10134;50.952;6.930;2022-09-21T02:00:36;8.85;;;4.57;;
19944;SDS011;10134;50.952;6.930;2022-09-21T02:03:11;11.23;;;5.10;;
19944;SDS011;10134;50.952;6.930;2022-09-21T02:05:45;7.10;;;4.22;;
19944;SDS011;10134;50.952;6.930;2022-09-21T02:08:13;8.40;;;4.57;;
19944;SDS011;10134;50.952;6.930;2022-09-21T02:10:44;7.55;;;4.18;;
19944;SDS011;10134;50.952;6.930;2022-09-21T02:13:16;11.43;;;4.60;;
19944;SDS011;10134;50.952;6.930;2022-09-21T02:18:42;12.68;;;4.50;;
19944;SDS011;10134;50.952;6.930;2022-09-21T02:21:30;9.90;;;4.75;;
19944;SDS011;10134;50.952;6.930;2022-09-21T02:27:04;6.22;;;4.20;;
19944;SDS011;10134;50.952;6.930;2022-09-21T02:29:48;9.10;;;4.20;;
19944;SDS011;10134;50.952;6.930;2022-09-21T02:35:20;6.93;;;4.65;;
19944;SDS011;10134;50.952;6.930;2022-09-21T02:38:46;10.68;;;4.32;;
19944;SDS011;10134;50.952;6.930;2022-09-21T02:42:00;7.18;;;4.35;;
19944;SDS011;10134;50.952;6.930;2022-09-21T02:49:41;8.30;;;4.45;;
19944;SDS011;10134;50.952;6.930;2022-09-21T02:52:13;10.10;;;4.10;;
19944;SDS011;10134;50.952;6.930;2022-09-21T02:54:43;8.50;;;4.05;;
19944;SDS011;10134;50.952;6.930;2022-09-21T02:57:14;7.25;;;3.88;;
19944;SDS011;10134;50.952;6.930;2022-09-21T02:59:43;7.72;;;3.95;;
19944;SDS011;10134;50.952;6.930;2022-09-21T03:02:11;6.90;;;3.83;;
19944;SDS011;10134;50.952;6.930;2022-09-21T03:04:39;7.97;;;4.03;;
19944;SDS011;10134;50.952;6.930;2022-09-21T03:07:07;9.77;;;4.53;;
19944;SDS011;10134;50.952;6.930;2022-09-21T03:09:35;10.95;;;4.13;;
19944;SDS011;10134;50.952;6.930;2022-09-21T03:12:02;8.98;;;3.92;;
19944;SDS011;10134;50.952;6.930;2022-09-21T03:14:29;7.40;;;4.18;;
19944;SDS011;10134;50.952;6.930;2022-09-21T03:16:58;9.57;;;4.45;;
19944;SDS011;10134;50.952;6.930;2022-09-21T03:19:26;5.60;;;4.38;;
19944;SDS011;10134;50.952;6.930;2022-09-21T03:21:54;7.60;;;4.47;;
19944;SDS011;10134;50.952;6.930;2022-09-21T03:24:22;11.00;;;5.03;;
19944;SDS011;10134;50.952;6.930;2022-09-21T03:27:08;10.35;;;4.75;;
19944;SDS011;10134;50.952;6.930;2022-09-21T03:29:35;7.13;;;4.82;;
19944;SDS011;10134;50.952;6.930;2022-09-21T03:32:02;8.07;;;4.38;;
19944;SDS011;10134;50.952;6.930;2022-09-21T03:34:30;7.05;;;4.70;;
19944;SDS011;10134;50.952;6.930;2022-09-21T03:36:59;8.48;;;4.55;;
19944;SDS011;10134;50.952;6.930;2022-09-21T03:39:27;10.85;;;5.07;;
19944;SDS011;10134;50.952;6.930;2022-09-21T03:41:55;6.50;;;4.68;;
19944;SDS011;10134;50.952;6.930;2022-09-21T03:44:23;7.68;;;4.80;;
19944;SDS011;10134;50.952;6.930;2022-09-21T03:46:52;9.40;;;4.78;;
19944;SDS011;10134;50.952;6.930;2022-09-21T03:49:19;9.38;;;5.78;;
19944;SDS011;10134;50.952;6.930;2022-09-21T03:51:47;15.30;;;6.45;;
19944;SDS011;10134;50.952;6.930;2022-09-21T03:54:14;9.02;;;5.60;;
19944;SDS011;10134;50.952;6.930;2022-09-21T03:56:41;8.95;;;5.60;;
19944;SDS011;10134;50.952;6.930;2022-09-21T03:59:09;7.47;;;5.30;;
19944;SDS011;10134;50.952;6.930;2022-09-21T04:01:40;8.93;;;4.80;;
19944;SDS011;10134;50.952;6.930;2022-09-21T04:04:08;10.25;;;4.75;;
19944;SDS011;10134;50.952;6.930;2022-09-21T04:06:36;9.27;;;4.70;;
19944;SDS011;10134;50.952;6.930;2022-09-21T04:09:03;6.43;;;4.95;;
19944;SDS011;10134;50.952;6.930;2022-09-21T04:11:31;7.50;;;5.20;;
19944;SDS011;10134;50.952;6.930;2022-09-21T04:13:58;9.13;;;5.90;;
19944;SDS011;10134;50.952;6.930;2022-09-21T04:16:26;6.57;;;4.70;;
19944;SDS011;10134;50.952;6.930;2022-09-21T04:18:54;7.00;;;5.20;;
19944;SDS011;10134;50.952;6.930;2022-09-21T04:21:21;11.13;;;5.78;;
19944;SDS011;10134;50.952;6.930;2022-09-21T04:23:49;8.63;;;5.53;;
19944;SDS011;10134;50.952;6.930;2022-09-21T04:26:20;8.43;;;4.72;;
19944;SDS011;10134;50.952;6.930;2022-09-21T04:28:53;9.63;;;5.27;;
19944;SDS011;10134;50.952;6.930;2022-09-21T04:31:21;9.73;;;5.03;;
19944;SDS011;10134;50.952;6.930;2022-09-21T04:33:51;11.18;;;5.25;;
19944;SDS011;10134;50.952;6.930;2022-09-21T04:36:20;13.13;;;5.20;;
19944;SDS011;10134;50.952;6.930;2022-09-21T04:38:48;10.45;;;5.00;;
19944;SDS011;10134;50.952;6.930;2022-09-21T04:41:16;11.10;;;6.00;;
19944;SDS011;10134;50.952;6.930;2022-09-21T04:43:44;7.25;;;5.38;;
19944;SDS011;10134;50.952;6.930;2022-09-21T04:46:13;8.25;;;5.80;;
19944;SDS011;10134;50.952;6.930;2022-09-21T04:48:42;9.00;;;6.20;;
19944;SDS011;10134;50.952;6.930;2022-09-21T04:51:10;13.40;;;6.00;;
19944;SDS011;10134;50.952;6.930;2022-09-21T04:53:38;10.20;;;6.15;;
19944;SDS011;10134;50.952;6.930;2022-09-21T04:56:07;10.02;;;5.72;;
19944;SDS011;10134;50.952;6.930;2022-09-21T04:58:36;9.15;;;5.20;;
19944;SDS011;10134;50.952;6.930;2022-09-21T05:01:03;10.77;;;6.07;;
19944;SDS011;10134;50.952;6.930;2022-09-21T05:03:32;9.10;;;6.30;;
19944;SDS011;10134;50.952;6.930;2022-09-21T05:06:00;8.93;;;5.95;;
19944;SDS011;10134;50.952;6.930;2022-09-21T05:08:28;10.70;;;5.95;;
19944;SDS011;10134;50.952;6.930;2022-09-21T05:11:15;12.30;;;6.68;;
19944;SDS011;10134;50.952;6.930;2022-09-21T05:13:47;10.67;;;6.30;;
19944;SDS011;10134;50.952;6.930;2022-09-21T05:16:14;11.63;;;6.70;;
19944;SDS011;10134;50.952;6.930;2022-09-21T05:18:42;11.30;;;6.53;;
19944;SDS011;10134;50.952;6.930;2022-09-21T05:21:11;10.90;;;7.00;;
19944;SDS011;10134;50.952;6.930;2022-09-21T05:23:39;14.47;;;6.97;;
19944;SDS011;10134;50.952;6.930;2022-09-21T05:26:08;15.67;;;7.13;;
19944;SDS011;10134;50.952;6.930;2022-09-21T05:28:35;8.33;;;6.47;;
19944;SDS011;10134;50.952;6.930;2022-09-21T05:31:18;17.07;;;7.03;;
19944;SDS011;10134;50.952;6.930;2022-09-21T05:34:20;11.37;;;6.87;;
19944;SDS011;10134;50.952;6.930;2022-09-21T05:37:07;14.10;;;6.57;;
19944;SDS011;10134;50.952;6.930;2022-09-21T05:39:43;8.93;;;5.90;;
19944;SDS011;10134;50.952;6.930;2022-09-21T05:42:11;9.35;;;5.28;;
19944;SDS011;10134;50.952;6.930;2022-09-21T05:44:39;11.73;;;6.57;;
19944;SDS011;10134;50.952;6.930;2022-09-21T05:55:48;9.93;;;6.30;;
19944;SDS011;10134;50.952;6.930;2022-09-21T05:58:26;12.07;;;6.17;;
19944;SDS011;10134;50.952;6.930;2022-09-21T06:01:25;9.50;;;6.93;;
19944;SDS011;10134;50.952;6.930;2022-09-21T06:04:17;8.70;;;5.80;;
19944;SDS011;10134;50.952;6.930;2022-09-21T06:06:47;6.05;;;5.13;;
19944;SDS011;10134;50.952;6.930;2022-09-21T06:09:15;10.30;;;6.27;;
19944;SDS011;10134;50.952;6.930;2022-09-21T06:11:42;10.15;;;6.82;;
19944;SDS011;10134;50.952;6.930;2022-09-21T06:14:10;12.50;;;6.33;;
19944;SDS011;10134;50.952;6.930;2022-09-21T06:16:38;11.40;;;6.30;;
19944;SDS011;10134;50.952;6.930;2022-09-21T06:19:09;9.38;;;6.53;;
19944;SDS011;10134;50.952;6.930;2022-09-21T06:21:37;11.33;;;6.63;;
19944;SDS011;10134;50.952;6.930;2022-09-21T06:24:04;11.07;;;6.27;;
19944;SDS011;10134;50.952;6.930;2022-09-21T06:26:33;11.48;;;6.22;;
19944;SDS011;10134;50.952;6.930;2022-09-21T06:29:00;9.15;;;6.35;;
19944;SDS011;10134;50.952;6.930;2022-09-21T06:31:28;9.95;;;6.28;;
19944;SDS011;10134;50.952;6.930;2022-09-21T06:33:55;10.55;;;6.13;;
19944;SDS011;10134;50.952;6.930;2022-09-21T06:36:22;14.07;;;6.85;;
19944;SDS011;10134;50.952;6.930;2022-09-21T06:38:49;9.95;;;6.20;;
19944;SDS011;10134;50.952;6.930;2022-09-21T06:41:17;12.13;;;7.13;;
19944;SDS011;10134;50.952;6.930;2022-09-21T06:43:47;14.27;;;7.38;;
19944;SDS011;10134;50.952;6.930;2022-09-21T06:46:14;11.40;;;7.28;;
19944;SDS011;10134;50.952;6.930;2022-09-21T06:48:41;15.57;;;7.50;;
19944;SDS011;10134;50.952;6.930;2022-09-21T06:51:09;13.18;;;8.73;;
19944;SDS011;10134;50.952;6.930;2022-09-21T06:53:36;14.13;;;7.82;;
19944;SDS011;10134;50.952;6.930;2022-09-21T06:56:04;11.07;;;7.03;;
19944;SDS011;10134;50.952;6.930;2022-09-21T06:58:33;10.55;;;7.05;;
19944;SDS011;10134;50.952;6.930;2022-09-21T07:01:07;11.63;;;7.53;;
19944;SDS011;10134;50.952;6.930;2022-09-21T07:03:37;16.55;;;7.82;;
19944;SDS011;10134;50.952;6.930;2022-09-21T07:06:06;12.43;;;7.75;;
19944;SDS011;10134;50.952;6.930;2022-09-21T07:08:34;11.80;;;7.38;;
19944;SDS011;10134;50.952;6.930;2022-09-21T07:11:21;11.80;;;7.03;;
19944;SDS011;10134;50.952;6.930;2022-09-21T07:13:49;13.15;;;7.63;;
19944;SDS011;10134;50.952;6.930;2022-09-21T07:16:16;11.55;;;7.30;;
19944;SDS011;10134;50.952;6.930;2022-09-21T07:18:45;10.50;;;7.18;;
19944;SDS011;10134;50.952;6.930;2022-09-21T07:21:12;8.82;;;7.13;;
19944;SDS011;10134;50.952;6.930;2022-09-21T07:23:40;8.73;;;6.38;;
19944;SDS011;10134;50.952;6.930;2022-09-21T07:26:08;11.82;;;7.85;;
19944;SDS011;10134;50.952;6.930;2022-09-21T07:28:37;16.05;;;8.38;;
19944;SDS011;10134;50.952;6.930;2022-09-21T07:31:06;9.65;;;6.43;;
19944;SDS011;10134;50.952;6.930;2022-09-21T07:33:41;11.52;;;7.25;;
19944;SDS011;10134;50.952;6.930;2022-09-21T07:36:12;15.48;;;7.88;;
19944;SDS011;10134;50.952;6.930;2022-09-21T07:38:40;12.00;;;8.40;;
19944;SDS011;10134;50.952;6.930;2022-09-21T07:41:09;17.05;;;7.45;;
19944;SDS011;10134;50.952;6.930;2022-09-21T07:43:38;11.65;;;6.93;;
19944;SDS011;10134;50.952;6.930;2022-09-21T07:46:10;12.95;;;7.80;;
19944;SDS011;10134;50.952;6.930;2022-09-21T07:48:40;13.98;;;9.18;;
19944;SDS011;10134;50.952;6.930;2022-09-21T07:51:09;11.40;;;7.65;;
19944;SDS011;10134;50.952;6.930;2022-09-21T07:53:39;12.10;;;7.97;;
19944;SDS011;10134;50.952;6.930;2022-09-21T07:56:09;12.80;;;8.48;;
19944;SDS011;10134;50.952;6.930;2022-09-21T07:58:38;13.48;;;8.07;;
19944;SDS011;10134;50.952;6.930;2022-09-21T08:01:24;15.65;;;9.13;;
19944;SDS011;10134;50.952;6.930;2022-09-21T08:03:53;10.50;;;7.47;;
19944;SDS011;10134;50.952;6.930;2022-09-21T08:06:23;16.52;;;7.80;;
19944;SDS011;10134;50.952;6.930;2022-09-21T08:08:51;20.88;;;9.60;;
19944;SDS011;10134;50.952;6.930;2022-09-21T08:11:24;16.15;;;8.43;;
19944;SDS011;10134;50.952;6.930;2022-09-21T08:13:54;14.95;;;8.57;;
19944;SDS011;10134;50.952;6.930;2022-09-21T08:16:23;12.75;;;8.02;;
19944;SDS011;10134;50.952;6.930;2022-09-21T08:18:51;15.95;;;9.57;;
19944;SDS011;10134;50.952;6.930;2022-09-21T08:21:19;21.60;;;9.32;;
19944;SDS011;10134;50.952;6.930;2022-09-21T08:23:47;17.50;;;9.93;;
19944;SDS011;10134;50.952;6.930;2022-09-21T08:26:16;15.23;;;9.90;;
19944;SDS011;10134;50.952;6.930;2022-09-21T08:28:45;12.88;;;9.88;;
19944;SDS011;10134;50.952;6.930;2022-09-21T08:31:18;17.92;;;10.43;;
19944;SDS011;10134;50.952;6.930;2022-09-21T08:33:47;22.75;;;12.25;;
19944;SDS011;10134;50.952;6.930;2022-09-21T08:36:15;15.32;;;10.13;;
19944;SDS011;10134;50.952;6.930;2022-09-21T08:38:43;18.63;;;11.13;;
19944;SDS011;10134;50.952;6.930;2022-09-21T08:41:18;15.65;;;10.45;;
19944;SDS011;10134;50.952;6.930;2022-09-21T08:46:20;13.38;;;8.90;;
19944;SDS011;10134;50.952;6.930;2022-09-21T08:48:58;13.05;;;8.82;;
19944;SDS011;10134;50.952;6.930;2022-09-21T08:51:31;18.13;;;9.75;;
19944;SDS011;10134;50.952;6.930;2022-09-21T08:54:45;13.02;;;9.15;;
19944;SDS011;10134;50.952;6.930;2022-09-21T08:57:00;11.38;;;7.93;;
19944;SDS011;10134;50.952;6.930;2022-09-21T08:59:32;12.13;;;8.07;;
19944;SDS011;10134;50.952;6.930;2022-09-21T09:08:30;12.85;;;7.70;;
19944;SDS011;10134;50.952;6.930;2022-09-21T09:21:47;9.38;;;6.57;;
19944;SDS011;10134;50.952;6.930;2022-09-21T09:27:14;10.00;;;7.05;;
19944;SDS011;10134;50.952;6.930;2022-09-21T09:30:08;13.95;;;7.18;;
19944;SDS011;10134;50.952;6.930;2022-09-21T09:33:16;9.73;;;5.57;;
19944;SDS011;10134;50.952;6.930;2022-09-21T09:52:20;13.75;;;5.68;;
19944;SDS011;10134;50.952;6.930;2022-09-21T09:54:48;7.97;;;4.90;;
19944;SDS011;10134;50.952;6.930;2022-09-21T09:57:17;10.98;;;5.32;;
19944;SDS011;10134;50.952;6.930;2022-09-21T09:59:53;7.65;;;4.75;;
19944;SDS011;10134;50.952;6.930;2022-09-21T10:02:50;5.97;;;3.88;;
19944;SDS011;10134;50.952;6.930;2022-09-21T10:05:23;11.50;;;4.53;;
19944;SDS011;10134;50.952;6.930;2022-09-21T10:07:54;7.97;;;4.13;;
19944;SDS011;10134;50.952;6.930;2022-09-21T10:15:42;7.13;;;4.07;;
19944;SDS011;10134;50.952;6.930;2022-09-21T10:18:19;5.95;;;2.50;;
19944;SDS011;10134;50.952;6.930;2022-09-21T10:20:51;4.57;;;3.28;;
19944;SDS011;10134;50.952;6.930;2022-09-21T10:23:22;7.03;;;3.10;;
19944;SDS011;10134;50.952;6.930;2022-09-21T10:25:58;9.95;;;2.90;;
19944;SDS011;10134;50.952;6.930;2022-09-21T10:28:55;5.82;;;2.30;;
19944;SDS011;10134;50.952;6.930;2022-09-21T10:31:28;4.28;;;2.42;;
19944;SDS011;10134;50.952;6.930;2022-09-21T10:36:35;6.50;;;2.67;;
19944;SDS011;10134;50.952;6.930;2022-09-21T10:39:10;3.70;;;2.00;;
19944;SDS011;10134;50.952;6.930;2022-09-21T10:41:46;3.72;;;1.60;;
19944;SDS011;10134;50.952;6.930;2022-09-21T10:44:48;5.15;;;1.88;;
19944;SDS011;10134;50.952;6.930;2022-09-21T10:49:54;4.10;;;1.88;;
19944;SDS011;10134;50.952;6.930;2022-09-21T10:52:31;5.68;;;1.40;;
19944;SDS011;10134;50.952;6.930;2022-09-21T10:55:01;3.15;;;1.50;;
19944;SDS011;10134;50.952;6.930;2022-09-21T10:57:28;3.78;;;1.58;;
19944;SDS011;10134;50.952;6.930;2022-09-21T11:00:08;6.28;;;1.88;;
19944;SDS011;10134;50.952;6.930;2022-09-21T11:02:55;5.88;;;1.30;;
19944;SDS011;10134;50.952;6.930;2022-09-21T11:05:27;4.90;;;2.03;;
19944;SDS011;10134;50.952;6.930;2022-09-21T11:10:40;2.65;;;1.40;;
19944;SDS011;10134;50.952;6.930;2022-09-21T11:13:24;6.18;;;1.58;;
19944;SDS011;10134;50.952;6.930;2022-09-21T11:16:08;3.83;;;1.00;;
19944;SDS011;10134;50.952;6.930;2022-09-21T11:21:26;6.82;;;1.45;;
19944;SDS011;10134;50.952;6.930;2022-09-21T11:26:48;6.05;;;1.95;;
19944;SDS011;10134;50.952;6.930;2022-09-21T11:29:20;6.60;;;2.63;;
19944;SDS011;10134;50.952;6.930;2022-09-21T11:34:50;4.70;;;2.03;;
19944;SDS011;10134;50.952;6.930;2022-09-21T11:51:40;3.53;;;1.85;;
19944;SDS011;10134;50.952;6.930;2022-09-21T12:00:06;2.20;;;1.65;;
19944;SDS011;10134;50.952;6.930;2022-09-21T12:19:36;5.72;;;1.98;;
19944;SDS011;10134;50.952;6.930;2022-09-21T12:22:28;1.77;;;1.23;;
19944;SDS011;10134;50.952;6.930;2022-09-21T12:25:03;2.80;;;1.20;;
19944;SDS011;10134;50.952;6.930;2022-09-21T12:27:40;3.58;;;1.30;;
19944;SDS011;10134;50.952;6.930;2022-09-21T12:30:24;4.80;;;1.40;;
19944;SDS011;10134;50.952;6.930;2022-09-21T12:38:12;2.28;;;0.95;;
19944;SDS011;10134;50.952;6.930;2022-09-21T12:40:46;3.42;;;0.80;;
19944;SDS011;10134;50.952;6.930;2022-09-21T12:43:25;1.98;;;0.70;;
19944;SDS011;10134;50.952;6.930;2022-09-21T12:46:18;2.45;;;1.02;;
19944;SDS011;10134;50.952;6.930;2022-09-21T12:48:53;1.35;;;0.98;;
19944;SDS011;10134;50.952;6.930;2022-09-21T12:51:23;4.15;;;0.90;;
19944;SDS011;10134;50.952;6.930;2022-09-21T12:53:56;3.25;;;0.80;;
19944;SDS011;10134;50.952;6.930;2022-09-21T13:07:10;3.25;;;0.95;;
19944;SDS011;10134;50.952;6.930;2022-09-21T13:09:48;1.10;;;0.60;;
19944;SDS011;10134;50.952;6.930;2022-09-21T13:12:19;2.55;;;0.90;;
19944;SDS011;10134;50.952;6.930;2022-09-21T13:14:58;1.42;;;0.90;;
19944;SDS011;10134;50.952;6.930;2022-09-21T13:17:30;1.90;;;1.05;;
19944;SDS011;10134;50.952;6.930;2022-09-21T13:20:05;4.50;;;0.93;;
19944;SDS011;10134;50.952;6.930;2022-09-21T13:22:43;39.08;;;3.03;;
19944;SDS011;10134;50.952;6.930;2022-09-21T13:25:21;1.70;;;0.75;;
19944;SDS011;10134;50.952;6.930;2022-09-21T13:30:28;1.52;;;0.73;;
19944;SDS011;10134;50.952;6.930;2022-09-21T13:32:55;5.43;;;1.50;;
19944;SDS011;10134;50.952;6.930;2022-09-21T13:35:47;8.95;;;0.90;;
19944;SDS011;10134;50.952;6.930;2022-09-21T13:39:17;9.75;;;1.20;;
19944;SDS011;10134;50.952;6.930;2022-09-21T13:43:47;7.50;;;1.15;;
19944;SDS011;10134;50.952;6.930;2022-09-21T13:51:55;1.98;;;0.98;;
19944;SDS011;10134;50.952;6.930;2022-09-21T13:54:38;2.63;;;1.27;;
19944;SDS011;10134;50.952;6.930;2022-09-21T13:57:22;2.88;;;1.10;;
19944;SDS011;10134;50.952;6.930;2022-09-21T14:03:16;2.60;;;0.70;;
19944;SDS011;10134;50.952;6.930;2022-09-21T14:05:54;1.92;;;0.50;;
19944;SDS011;10134;50.952;6.930;2022-09-21T14:08:34;1.63;;;0.88;;
19944;SDS011;10134;50.952;6.930;2022-09-21T14:11:06;0.65;;;0.47;;
19944;SDS011;10134;50.952;6.930;2022-09-21T14:19:00;4.78;;;0.85;;
19944;SDS011;10134;50.952;6.930;2022-09-21T14:24:36;1.58;;;0.80;;
19944;SDS011;10134;50.952;6.930;2022-09-21T14:32:14;2.75;;;1.02;;
19944;SDS011;10134;50.952;6.930;2022-09-21T14:34:45;3.45;;;1.30;;
19944;SDS011;10134;50.952;6.930;2022-09-21T14:39:59;4.70;;;1.10;;
19944;SDS011;10134;50.952;6.930;2022-09-21T14:42:32;2.28;;;1.10;;
19944;SDS011;10134;50.952;6.930;2022-09-21T14:45:00;2.63;;;1.00;;
19944;SDS011;10134;50.952;6.930;2022-09-21T14:50:31;6.25;;;1.05;;
19944;SDS011;10134;50.952;6.930;2022-09-21T14:53:36;4.05;;;1.20;;
19944;SDS011;10134;50.952;6.930;2022-09-21T15:02:17;2.40;;;0.80;;
19944;SDS011;10134;50.952;6.930;2022-09-21T15:16:08;5.18;;;1.30;;
19944;SDS011;10134;50.952;6.930;2022-09-21T15:18:44;2.47;;;1.33;;
19944;SDS011;10134;50.952;6.930;2022-09-21T15:21:24;2.17;;;1.23;;
19944;SDS011;10134;50.952;6.930;2022-09-21T15:23:55;2.40;;;0.90;;
19944;SDS011;10134;50.952;6.930;2022-09-21T15:26:26;4.00;;;1.15;;
19944;SDS011;10134;50.952;6.930;2022-09-21T15:29:00;4.30;;;1.40;;
19944;SDS011;10134;50.952;6.930;2022-09-21T15:31:37;3.58;;;1.30;;
19944;SDS011;10134;50.952;6.930;2022-09-21T15:34:07;2.42;;;0.90;;
19944;SDS011;10134;50.952;6.930;2022-09-21T15:36:39;3.83;;;1.38;;
19944;SDS011;10134;50.952;6.930;2022-09-21T15:39:23;1.08;;;0.80;;
19944;SDS011;10134;50.952;6.930;2022-09-21T15:44:33;4.25;;;1.52;;
19944;SDS011;10134;50.952;6.930;2022-09-21T15:47:05;3.55;;;1.52;;
19944;SDS011;10134;50.952;6.930;2022-09-21T15:49:35;4.78;;;1.52;;
19944;SDS011;10134;50.952;6.930;2022-09-21T15:54:52;4.80;;;1.73;;
19944;SDS011;10134;50.952;6.930;2022-09-21T15:57:33;5.15;;;2.50;;
19944;SDS011;10134;50.952;6.930;2022-09-21T16:02:54;3.30;;;0.98;;
19944;SDS011;10134;50.952;6.930;2022-09-21T16:05:22;3.17;;;1.15;;
19944;SDS011;10134;50.952;6.930;2022-09-21T16:08:06;2.65;;;1.00;;
19944;SDS011;10134;50.952;6.930;2022-09-21T16:10:43;1.70;;;0.75;;
19944;SDS011;10134;50.952;6.930;2022-09-21T16:13:13;2.03;;;1.08;;
19944;SDS011;10134;50.952;6.930;2022-09-21T16:16:08;1.50;;;0.55;;
19944;SDS011;10134;50.952;6.930;2022-09-21T16:18:53;4.00;;;0.90;;
19944;SDS011;10134;50.952;6.930;2022-09-21T16:24:07;4.07;;;1.30;;
19944;SDS011;10134;50.952;6.930;2022-09-21T16:26:38;2.38;;;0.90;;
19944;SDS011;10134;50.952;6.930;2022-09-21T16:31:34;2.42;;;1.38;;
19944;SDS011;10134;50.952;6.930;2022-09-21T16:34:04;3.22;;;1.13;;
19944;SDS011;10134;50.952;6.930;2022-09-21T16:36:44;1.95;;;1.00;;
19944;SDS011;10134;50.952;6.930;2022-09-21T16:39:17;2.78;;;0.98;;
19944;SDS011;10134;50.952;6.930;2022-09-21T16:41:55;2.78;;;1.00;;
19944;SDS011;10134;50.952;6.930;2022-09-21T16:44:26;4.07;;;1.85;;
19944;SDS011;10134;50.952;6.930;2022-09-21T16:46:57;2.45;;;0.88;;
19944;SDS011;10134;50.952;6.930;2022-09-21T16:49:27;3.20;;;1.10;;
19944;SDS011;10134;50.952;6.930;2022-09-21T16:52:00;5.90;;;1.27;;
19944;SDS011;10134;50.952;6.930;2022-09-21T16:54:27;2.50;;;1.00;;
19944;SDS011;10134;50.952;6.930;2022-09-21T16:56:56;2.67;;;0.95;;
19944;SDS011;10134;50.952;6.930;2022-09-21T16:59:25;1.48;;;0.70;;
19944;SDS011;10134;50.952;6.930;2022-09-21T17:01:54;1.95;;;0.98;;
19944;SDS011;10134;50.952;6.930;2022-09-21T17:04:23;5.75;;;1.77;;
19944;SDS011;10134;50.952;6.930;2022-09-21T17:06:53;6.30;;;3.20;;
19944;SDS011;10134;50.952;6.930;2022-09-21T17:09:22;8.75;;;3.78;;
19944;SDS011;10134;50.952;6.930;2022-09-21T17:11:56;10.43;;;5.25;;
19944;SDS011;10134;50.952;6.930;2022-09-21T17:14:27;6.50;;;3.55;;
19944;SDS011;10134;50.952;6.930;2022-09-21T17:17:03;3.60;;;2.85;;
19944;SDS011;10134;50.952;6.930;2022-09-21T17:19:36;5.20;;;2.85;;
19944;SDS011;10134;50.952;6.930;2022-09-21T17:22:04;3.40;;;2.38;;
19944;SDS011;10134;50.952;6.930;2022-09-21T17:24:32;4.05;;;2.47;;
19944;SDS011;10134;50.952;6.930;2022-09-21T17:27:17;4.57;;;2.83;;
19944;SDS011;10134;50.952;6.930;2022-09-21T17:29:49;4.43;;;2.35;;
19944;SDS011;10134;50.952;6.930;2022-09-21T17:32:17;4.13;;;1.95;;
19944;SDS011;10134;50.952;6.930;2022-09-21T17:34:50;2.30;;;1.60;;
19944;SDS011;10134;50.952;6.930;2022-09-21T17:37:39;3.88;;;1.92;;
19944;SDS011;10134;50.952;6.930;2022-09-21T17:40:06;4.82;;;2.15;;
19944;SDS011;10134;50.952;6.930;2022-09-21T17:42:38;5.75;;;2.85;;
19944;SDS011;10134;50.952;6.930;2022-09-21T17:48:04;6.18;;;2.90;;
19944;SDS011;10134;50.952;6.930;2022-09-21T17:50:36;4.30;;;2.60;;
19944;SDS011;10134;50.952;6.930;2022-09-21T17:53:03;6.13;;;2.95;;
19944;SDS011;10134;50.952;6.930;2022-09-21T17:55:51;4.38;;;2.25;;
19944;SDS011;10134;50.952;6.930;2022-09-21T18:01:27;8.73;;;4.25;;
19944;SDS011;10134;50.952;6.930;2022-09-21T18:04:00;11.75;;;5.55;;
19944;SDS011;10134;50.952;6.930;2022-09-21T18:06:28;27.08;;;17.48;;
19944;SDS011;10134;50.952;6.930;2022-09-21T18:08:57;10.48;;;7.03;;
19944;SDS011;10134;50.952;6.930;2022-09-21T18:14:15;9.18;;;4.38;;
19944;SDS011;10134;50.952;6.930;2022-09-21T18:17:11;8.23;;;4.13;;
19944;SDS011;10134;50.952;6.930;2022-09-21T18:20:21;9.32;;;5.07;;
19944;SDS011;10134;50.952;6.930;2022-09-21T18:25:28;9.85;;;5.20;;
19944;SDS011;10134;50.952;6.930;2022-09-21T18:28:01;10.48;;;5.07;;
19944;SDS011;10134;50.952;6.930;2022-09-21T18:30:38;8.88;;;5.18;;
19944;SDS011;10134;50.952;6.930;2022-09-21T18:36:02;11.25;;;5.75;;
19944;SDS011;10134;50.952;6.930;2022-09-21T18:38:42;8.50;;;4.55;;
19944;SDS011;10134;50.952;6.930;2022-09-21T18:41:29;7.35;;;4.25;;
19944;SDS011;10134;50.952;6.930;2022-09-21T18:44:30;7.82;;;4.82;;
19944;SDS011;10134;50.952;6.930;2022-09-21T18:47:12;12.93;;;4.45;;
19944;SDS011;10134;50.952;6.930;2022-09-21T18:50:14;7.35;;;4.35;;
19944;SDS011;10134;50.952;6.930;2022-09-21T18:55:42;8.88;;;4.43;;
19944;SDS011;10134;50.952;6.930;2022-09-21T18:58:10;9.07;;;4.65;;
19944;SDS011;10134;50.952;6.930;2022-09-21T19:00:38;9.52;;;4.15;;
19944;SDS011;10134;50.952;6.930;2022-09-21T19:03:06;9.88;;;4.40;;
19944;SDS011;10134;50.952;6.930;2022-09-21T19:05:53;7.00;;;4.32;;
19944;SDS011;10134;50.952;6.930;2022-09-21T19:20:05;13.35;;;7.97;;
19944;SDS011;10134;50.952;6.930;2022-09-21T19:25:46;12.13;;;6.63;;
19944;SDS011;10134;50.952;6.930;2022-09-21T19:30:47;9.50;;;5.38;;
19944;SDS011;10134;50.952;6.930;2022-09-21T19:33:29;12.57;;;5.13;;